Time;durP1;ratioP1;P1;durP2;ratioP2;P2;SDS_P1;SDS_P2;PMS_P1;PMS_P2;Temp;Humidity;BMP_temperature;BMP_pressure;BME280_temperature;BME280_humidity;BME280_pressure;Samples;Min_cycle;Max_cycle;Signal;HPM_P1;HPM_P2
2023/09/26 01:54:42;;;;;;;;;;;;;;;12.61;78.09;100483.19;1087351;54;1111;-79
2023/09/26 01:56:10;;;;;;;;;;;;;;;12.68;77.88;100484.28;1087519;47;1085;-80
2023/09/26 17:59:16;;;;;;;;;;;;;;;21.26;55.90;100235.91;1087273;54;1221;-84
2023/09/26 18:00:20;;;;;;;;;;;;;;;21.19;56.19;100224.22;1087657;54;939;-78
2023/09/26 18:01:24;;;;;;;;;;;;;;;21.15;56.88;100226.53;1084858;47;1032;-79
2023/09/26 18:02:38;;;;;;;;;;;;;;;21.13;57.19;100231.34;1085857;54;1415;-81
2023/09/26 18:03:43;;;;;;;;;;;;;;;21.09;57.32;100226.53;1088341;54;928;-84
2023/09/26 18:05:07;;;;;;;;;;;;;;;21.04;57.37;100238.88;1088630;47;1033;-80
2023/09/26 18:06:10;;;;;;;;;;;;;;;21.00;57.41;100237.63;1088446;47;1049;-82
2023/09/26 18:07:19;;;;;;;;;;;;;;;20.97;58.09;100232.59;1088074;47;1284;-84
2023/09/26 18:56:28;;;;;;;;;;;;;;;19.38;63.27;100267.03;1088299;47;848;-82
2023/09/26 18:57:43;;;;;;;;;;;;;;;19.35;63.45;100273.69;1088149;47;984;-81
2023/09/26 18:58:48;;;;;;;;;;;;;;;19.38;63.51;100269.75;1088258;47;896;-80
2023/09/26 18:59:49;;;;;;;;;;;;;;;19.33;63.42;100271.16;1088094;47;933;-80
2023/09/26 19:00:53;;;;;;;;;;;;;;;19.30;63.15;100271.56;1088177;54;962;-81
2023/09/26 19:01:54;;;;;;;;;;;;;;;19.32;62.77;100269.47;1087999;47;1353;-81
2023/09/26 19:02:59;;;;;;;;;;;;;;;19.30;63.56;100276.16;1088031;47;1096;-81
2023/09/26 19:04:06;;;;;;;;;;;;;;;19.30;62.98;100274.28;1088014;47;925;-81
2023/09/26 19:05:11;;;;;;;;;;;;;;;19.31;63.19;100275.97;1087974;47;993;-81
2023/09/26 19:06:12;;;;;;;;;;;;;;;19.32;62.82;100268.66;1088081;47;1030;-81
2023/09/26 19:07:16;;;;;;;;;;;;;;;19.27;63.08;100276.56;1088101;47;921;-81
2023/09/26 19:08:17;;;;;;;;;;;;;;;19.22;63.98;100284.41;1088076;54;977;-80
2023/09/26 19:09:31;;;;;;;;;;;;;;;19.20;63.77;100286.47;1088000;47;1007;-81
2023/09/26 21:58:35;;;;;;;;;;;;;;;15.37;74.89;100356.50;1087507;54;1159;-79
2023/09/26 21:59:38;;;;;;;;;;;;;;;15.34;74.75;100351.47;1088171;54;1031;-81
2023/09/26 22:00:41;;;;;;;;;;;;;;;15.34;74.71;100346.06;1088143;54;901;-79
2023/09/26 22:01:42;;;;;;;;;;;;;;;15.41;74.75;100347.06;1087911;54;1229;-81
2023/09/26 22:02:43;;;;;;;;;;;;;;;15.47;74.52;100336.66;1088199;54;946;-81
2023/09/26 22:03:46;;;;;;;;;;;;;;;15.44;74.15;100346.75;1088232;54;1730;-79
2023/09/26 22:04:47;;;;;;;;;;;;;;;15.49;73.96;100337.31;1088278;47;1403;-80
2023/09/26 22:05:51;;;;;;;;;;;;;;;15.53;73.94;100339.50;1088217;47;1456;-80
2023/09/26 22:06:53;;;;;;;;;;;;;;;15.55;74.18;100333.94;1088312;54;1514;-79
2023/09/26 22:07:57;;;;;;;;;;;;;;;15.59;73.63;100332.56;1088283;54;1039;-79
2023/09/26 22:08:58;;;;;;;;;;;;;;;15.62;73.66;100337.63;1088179;47;1473;-80
2023/09/26 22:10:01;;;;;;;;;;;;;;;15.65;73.21;100337.28;1088276;54;912;-81
2023/09/26 22:11:02;;;;;;;;;;;;;;;15.67;73.45;100326.34;1088296;54;1093;-79
2023/09/26 22:12:05;;;;;;;;;;;;;;;15.69;73.11;100338.63;1088220;47;1570;-79
2023/09/26 22:13:06;;;;;;;;;;;;;;;15.69;73.27;100333.22;1088386;54;1079;-80
2023/09/26 22:14:09;;;;;;;;;;;;;;;15.72;73.21;100338.28;1088426;54;1039;-81
2023/09/26 22:15:13;;;;;;;;;;;;;;;15.74;73.16;100335.41;1088302;54;1847;-78
2023/09/26 22:16:18;;;;;;;;;;;;;;;15.71;73.02;100336.59;1088269;47;1481;-80
2023/09/26 22:17:19;;;;;;;;;;;;;;;15.73;73.11;100337.28;1088263;47;1522;-81
2023/09/26 22:18:23;;;;;;;;;;;;;;;15.69;73.14;100335.91;1088234;47;1007;-79
2023/09/26 22:19:24;;;;;;;;;;;;;;;15.64;73.51;100346.38;1088004;47;1141;-79
2023/09/26 22:20:30;;;;;;;;;;;;;;;15.64;73.72;100341.00;1088115;54;963;-80
2023/09/26 22:21:30;;;;;;;;;;;;;;;15.65;73.73;100344.53;1088109;54;1024;-80
2023/09/26 22:22:33;;;;;;;;;;;;;;;15.68;73.43;100341.50;1088026;47;1320;-80
2023/09/26 22:23:34;;;;;;;;;;;;;;;15.68;73.27;100342.31;1088083;54;1010;-79
2023/09/26 22:24:37;;;;;;;;;;;;;;;15.68;73.51;100346.88;1088041;54;1030;-79
2023/09/26 22:25:38;;;;;;;;;;;;;;;15.70;73.01;100340.31;1088012;54;1018;-80
2023/09/26 22:26:41;;;;;;;;;;;;;;;15.72;73.06;100330.19;1087911;47;1453;-78
2023/09/26 22:27:42;;;;;;;;;;;;;;;15.74;72.76;100335.41;1087982;54;1042;-79
2023/09/26 22:28:46;;;;;;;;;;;;;;;15.73;72.91;100339.97;1088002;47;1352;-78
2023/09/26 22:29:46;;;;;;;;;;;;;;;15.70;72.64;100339.47;1088064;54;1022;-80
2023/09/26 22:30:53;;;;;;;;;;;;;;;15.68;72.89;100338.78;1088077;47;1002;-79
2023/09/26 22:31:53;;;;;;;;;;;;;;;15.67;72.81;100335.28;1087924;47;1496;-80
2023/09/26 22:32:56;;;;;;;;;;;;;;;15.67;72.83;100340.66;1088127;54;977;-79
2023/09/26 22:34:00;;;;;;;;;;;;;;;15.63;73.07;100333.91;1088046;54;1050;-80
